Time;durP1;ratioP1;P1;durP2;ratioP2;P2;SDS_P1;SDS_P2;PMS_P1;PMS_P2;Temp;Humidity;BMP_temperature;BMP_pressure;BME280_temperature;BME280_humidity;BME280_pressure;Samples;Min_cycle;Max_cycle;Signal;HPM_P1;HPM_P2
2022/07/05 00:01:45;;;;;;;1.55;0.90;;;14.30;7.20;;;;;;5117670;27;34088;-74
2022/07/05 00:04:11;;;;;;;1.23;1.00;;;14.30;7.20;;;;;;5095742;28;34129;-74
2022/07/05 00:07:17;;;;;;;1.50;0.82;;;14.30;7.40;;;;;;5107926;27;34279;-74
2022/07/05 00:09:23;;;;;;;1.73;0.90;;;14.30;7.40;;;;;;5109932;27;34072;-74
2022/07/05 00:11:50;;;;;;;1.20;1.10;;;14.20;7.30;;;;;;5094095;28;34360;-74
2022/07/05 00:14:16;;;;;;;0.80;0.80;;;14.10;7.40;;;;;;5121208;27;34090;-74
2022/07/05 00:16:42;;;;;;;3.60;1.00;;;14.10;7.40;;;;;;5124127;27;34167;-74
2022/07/05 00:19:08;;;;;;;1.20;1.10;;;14.10;7.50;;;;;;5124288;27;34220;-74
2022/07/05 00:21:34;;;;;;;1.00;0.90;;;14.00;7.50;;;;;;5123874;27;34148;-74
2022/07/05 00:24:00;;;;;;;1.33;1.05;;;14.00;7.70;;;;;;5141371;27;34235;-74
2022/07/05 00:26:25;;;;;;;4.97;0.80;;;13.90;7.80;;;;;;5112032;27;36277;-74
2022/07/05 00:28:51;;;;;;;1.45;0.90;;;13.90;7.80;;;;;;5086199;28;34199;-73
2022/07/05 00:31:17;;;;;;;1.90;1.00;;;13.90;8.00;;;;;;5106581;27;34119;-73
2022/07/05 00:33:43;;;;;;;1.15;1.02;;;13.90;8.10;;;;;;5107152;27;34139;-74
2022/07/05 00:36:09;;;;;;;3.97;1.27;;;13.80;8.10;;;;;;5106423;27;34889;-74
2022/07/05 00:38:35;;;;;;;1.13;1.00;;;13.80;8.20;;;;;;5106924;27;34408;-73
2022/07/05 00:41:01;;;;;;;1.65;1.15;;;13.80;8.20;;;;;;5106472;27;34575;-74
2022/07/05 00:43:28;;;;;;;4.40;1.08;;;13.70;8.30;;;;;;5086186;28;34088;-74
2022/07/05 00:45:54;;;;;;;2.25;0.90;;;13.70;8.40;;;;;;5095291;28;34483;-74
2022/07/05 00:48:19;;;;;;;1.52;1.30;;;13.70;8.50;;;;;;5120440;27;34321;-74
2022/07/05 00:50:45;;;;;;;0.98;0.90;;;13.70;8.50;;;;;;5119819;27;34063;-74
2022/07/05 00:53:12;;;;;;;1.05;0.90;;;13.70;8.60;;;;;;5137517;27;34410;-74
2022/07/05 00:55:38;;;;;;;1.33;1.10;;;13.60;8.50;;;;;;5124211;27;34474;-73
2022/07/05 00:58:04;;;;;;;1.25;1.00;;;13.60;8.50;;;;;;5122241;27;34386;-74
2022/07/05 01:00:30;;;;;;;1.63;1.17;;;13.50;8.50;;;;;;5085916;28;34283;-73
2022/07/05 01:02:56;;;;;;;1.30;1.15;;;13.50;8.70;;;;;;5084477;28;34136;-74
2022/07/05 01:05:22;;;;;;;1.15;1.05;;;13.40;8.80;;;;;;5092502;28;35851;-74
2022/07/05 01:07:48;;;;;;;0.90;0.90;;;13.40;8.90;;;;;;5097271;28;34194;-75
2022/07/05 01:10:14;;;;;;;0.80;0.80;;;13.30;8.90;;;;;;5094389;28;34235;-74
2022/07/05 01:12:40;;;;;;;3.25;1.08;;;13.20;9.00;;;;;;5119926;27;34015;-74
2022/07/05 01:15:07;;;;;;;0.95;0.95;;;13.20;9.10;;;;;;5105197;27;36172;-74
2022/07/05 01:17:36;;;;;;;1.38;1.25;;;13.10;9.50;;;;;;5140597;27;34363;-74
2022/07/05 01:20:04;;;;;;;1.75;1.00;;;13.20;9.40;;;;;;5105992;27;34100;-74
2022/07/05 01:22:54;;;;;;;1.30;1.20;;;13.10;9.40;;;;;;5120230;27;34157;-73
2022/07/05 01:25:22;;;;;;;3.22;1.05;;;13.10;12.00;;;;;;5106090;27;35359;-73
2022/07/05 01:27:48;;;;;;;1.08;0.98;;;13.00;9.50;;;;;;5122957;27;34238;-75
2022/07/05 01:30:15;;;;;;;1.10;1.00;;;13.00;9.60;;;;;;5109251;27;34279;-74
2022/07/05 01:32:42;;;;;;;1.77;1.30;;;13.00;9.60;;;;;;5092702;27;34139;-73
2022/07/05 01:35:09;;;;;;;2.17;1.10;;;12.90;9.60;;;;;;5109346;27;36468;-74
2022/07/05 01:37:36;;;;;;;0.90;0.90;;;12.90;9.60;;;;;;5126788;27;34257;-73
2022/07/05 01:40:03;;;;;;;1.00;1.00;;;12.80;9.60;;;;;;5126566;27;34012;-74
2022/07/05 01:42:29;;;;;;;1.08;0.95;;;12.80;9.70;;;;;;5105789;28;34389;-74
2022/07/05 01:44:55;;;;;;;1.50;1.10;;;12.70;9.70;;;;;;5105708;28;36180;-74
2022/07/05 01:47:22;;;;;;;1.40;1.10;;;12.70;9.70;;;;;;5107396;28;34392;-73
2022/07/05 01:49:52;;;;;;;2.53;1.10;;;12.70;10.00;;;;;;5122852;27;34157;-74
2022/07/05 01:52:21;;;;;;;0.95;0.95;;;12.70;10.20;;;;;;5105667;27;34376;-74
2022/07/05 01:54:48;;;;;;;1.60;0.95;;;12.60;10.30;;;;;;5106740;28;34192;-74
2022/07/05 01:57:14;;;;;;;2.13;1.05;;;12.60;10.10;;;;;;5105746;28;34202;-74
2022/07/05 01:59:40;;;;;;;2.45;1.13;;;12.50;10.10;;;;;;5122760;27;34201;-74
2022/07/05 02:02:08;;;;;;;1.23;1.05;;;12.50;10.20;;;;;;5103909;28;34501;-74
2022/07/05 02:04:35;;;;;;;1.55;1.00;;;12.50;10.50;;;;;;5066655;28;35817;-74
2022/07/05 02:07:06;;;;;;;1.15;1.00;;;12.50;10.50;;;;;;5086330;28;34216;-74
2022/07/05 02:09:32;;;;;;;1.40;1.30;;;12.50;10.90;;;;;;5079883;28;34285;-74
2022/07/05 02:11:58;;;;;;;1.50;1.20;;;12.50;10.50;;;;;;5085012;28;34106;-74
2022/07/05 02:14:23;;;;;;;4.22;1.10;;;12.40;10.50;;;;;;5078364;28;35963;-74
2022/07/05 02:16:49;;;;;;;1.30;1.20;;;12.40;10.50;;;;;;5091558;28;34001;-74
2022/07/05 02:19:15;;;;;;;1.20;1.10;;;12.30;10.50;;;;;;5097901;28;34064;-74
2022/07/05 02:21:41;;;;;;;0.95;0.88;;;12.30;10.70;;;;;;5123265;27;34274;-74
2022/07/05 02:24:08;;;;;;;1.30;1.20;;;12.20;10.70;;;;;;5108633;27;36562;-74
2022/07/05 02:26:34;;;;;;;1.17;1.00;;;12.20;10.80;;;;;;5127025;27;34269;-74
2022/07/05 02:29:02;;;;;;;1.35;1.10;;;12.20;10.80;;;;;;5108290;27;34293;-74
2022/07/05 02:31:27;;;;;;;2.50;1.20;;;12.10;10.90;;;;;;5127151;27;33990;-73
2022/07/05 02:33:53;;;;;;;1.40;1.30;;;12.10;10.90;;;;;;5142575;27;34367;-74
2022/07/05 02:36:20;;;;;;;1.45;1.35;;;12.10;10.90;;;;;;5126560;27;34397;-74
2022/07/05 02:38:46;;;;;;;1.02;0.90;;;12.10;11.00;;;;;;5108441;27;34575;-74
2022/07/05 02:41:12;;;;;;;0.90;0.90;;;12.00;11.00;;;;;;5108153;27;34243;-73
2022/07/05 02:43:39;;;;;;;3.65;1.05;;;12.00;11.10;;;;;;5126668;27;35196;-74
2022/07/05 02:46:06;;;;;;;1.80;1.30;;;11.90;11.10;;;;;;5105310;27;34191;-74
2022/07/05 02:48:33;;;;;;;1.48;1.20;;;11.90;11.30;;;;;;5101565;28;34222;-74
2022/07/05 02:50:59;;;;;;;1.40;1.30;;;11.90;11.90;;;;;;5120077;27;34081;-74
2022/07/05 02:53:25;;;;;;;2.83;1.30;;;11.90;11.50;;;;;;5077710;28;35762;-73
2022/07/05 02:55:51;;;;;;;1.95;1.15;;;11.80;11.40;;;;;;5118580;27;34260;-73
2022/07/05 02:58:17;;;;;;;3.47;1.10;;;11.80;11.40;;;;;;5098758;28;34219;-74
2022/07/05 03:00:45;;;;;;;1.33;1.10;;;11.80;11.40;;;;;;5087844;28;34292;-74
2022/07/05 03:03:11;;;;;;;1.20;1.10;;;11.80;11.60;;;;;;5092776;28;35855;-73
2022/07/05 03:05:37;;;;;;;1.35;1.25;;;11.70;11.50;;;;;;5134556;27;34213;-73
2022/07/05 03:08:03;;;;;;;1.25;1.15;;;11.70;11.60;;;;;;5104540;28;34011;-74
2022/07/05 03:10:29;;;;;;;1.40;1.30;;;11.70;11.70;;;;;;5087656;28;34039;-73
2022/07/05 03:12:55;;;;;;;0.98;0.98;;;11.70;11.80;;;;;;5093846;27;36540;-75
2022/07/05 03:15:21;;;;;;;1.55;1.02;;;11.70;11.80;;;;;;5126490;27;34231;-73
2022/07/05 03:17:47;;;;;;;1.48;0.95;;;11.70;11.70;;;;;;5107615;27;34207;-74
2022/07/05 03:20:13;;;;;;;1.30;1.20;;;11.60;11.80;;;;;;5125009;27;34171;-73
2022/07/05 03:22:39;;;;;;;4.75;1.48;;;11.60;11.80;;;;;;5142393;27;34422;-73
2022/07/05 03:25:06;;;;;;;0.95;0.95;;;11.60;11.80;;;;;;5121144;27;34153;-73
2022/07/05 03:27:31;;;;;;;3.92;1.10;;;11.50;11.90;;;;;;5100165;28;33980;-73
2022/07/05 03:29:58;;;;;;;1.20;1.10;;;11.50;12.00;;;;;;5087333;28;34030;-73
2022/07/05 03:32:24;;;;;;;1.23;1.13;;;11.50;12.00;;;;;;5124100;27;34985;-73
2022/07/05 03:34:49;;;;;;;1.33;1.17;;;11.50;12.00;;;;;;5106675;27;34170;-73
2022/07/05 03:37:15;;;;;;;1.00;1.00;;;11.50;12.10;;;;;;5092058;27;34180;-73
2022/07/05 03:39:41;;;;;;;1.60;1.33;;;11.40;12.20;;;;;;5126059;27;34233;-73
2022/07/05 03:42:07;;;;;;;5.15;1.50;;;11.40;12.10;;;;;;5124552;27;36046;-73
2022/07/05 03:44:33;;;;;;;1.33;1.20;;;11.40;12.20;;;;;;5124370;27;34157;-73
2022/07/05 03:46:59;;;;;;;1.15;1.10;;;11.30;12.20;;;;;;5106878;27;34230;-73
2022/07/05 03:49:26;;;;;;;1.30;1.20;;;11.30;12.30;;;;;;5124903;27;34498;-73
2022/07/05 03:51:52;;;;;;;3.65;1.20;;;11.30;12.30;;;;;;5111134;27;36580;-73
2022/07/05 03:54:18;;;;;;;1.38;1.10;;;11.30;12.40;;;;;;5123860;27;34116;-73
2022/07/05 03:56:45;;;;;;;1.45;1.35;;;11.30;12.40;;;;;;5135598;27;34300;-74
2022/07/05 03:59:11;;;;;;;4.53;1.13;;;11.30;12.50;;;;;;5144732;27;34261;-73
2022/07/05 04:01:37;;;;;;;2.08;1.27;;;11.30;12.50;;;;;;5121877;27;36733;-73
2022/07/05 04:04:03;;;;;;;1.20;1.10;;;11.30;12.50;;;;;;5138608;27;34277;-73
2022/07/05 04:06:29;;;;;;;2.05;1.17;;;11.20;12.50;;;;;;5097613;28;34237;-73
2022/07/05 04:08:55;;;;;;;1.73;1.15;;;11.30;12.70;;;;;;5087657;27;34466;-73
2022/07/05 04:11:21;;;;;;;1.10;1.10;;;11.30;12.70;;;;;;5106864;27;35774;-73
2022/07/05 04:13:46;;;;;;;1.60;1.50;;;11.30;12.70;;;;;;5106985;27;34134;-74
2022/07/05 04:16:13;;;;;;;2.80;1.80;;;11.40;12.80;;;;;;5123496;27;34060;-73
2022/07/05 04:18:39;;;;;;;4.90;1.40;;;11.40;12.80;;;;;;5116196;27;34567;-73
2022/07/05 04:21:05;;;;;;;1.90;1.50;;;11.40;12.90;;;;;;5121330;27;35841;-73
2022/07/05 04:23:31;;;;;;;1.88;1.30;;;11.40;12.80;;;;;;5104643;28;34240;-73
2022/07/05 04:25:57;;;;;;;1.88;1.50;;;11.50;12.80;;;;;;5104546;28;34068;-73
2022/07/05 04:28:23;;;;;;;1.75;1.65;;;11.50;12.80;;;;;;5103496;28;34170;-74
2022/07/05 04:30:49;;;;;;;2.22;1.55;;;11.50;12.80;;;;;;5106191;27;36619;-73
2022/07/05 04:33:15;;;;;;;1.42;1.33;;;11.50;12.90;;;;;;5116824;27;34190;-73
2022/07/05 04:35:41;;;;;;;1.95;1.33;;;11.60;12.90;;;;;;5140269;27;34168;-73
2022/07/05 04:38:06;;;;;;;2.05;1.52;;;11.60;12.80;;;;;;5117866;27;34083;-73
2022/07/05 04:40:32;;;;;;;1.85;1.63;;;11.60;12.80;;;;;;5101175;27;34509;-73
2022/07/05 04:42:58;;;;;;;1.88;1.48;;;11.60;12.90;;;;;;5134352;27;34378;-73
2022/07/05 04:45:24;;;;;;;3.13;1.50;;;11.60;12.90;;;;;;5104271;28;34121;-73
2022/07/05 04:47:50;;;;;;;1.40;1.30;;;11.60;13.00;;;;;;5119895;27;34401;-73
2022/07/05 04:50:16;;;;;;;1.60;1.50;;;11.60;13.10;;;;;;5104197;28;34134;-73
2022/07/05 04:52:42;;;;;;;1.90;1.60;;;11.60;13.20;;;;;;5130611;27;34291;-73
2022/07/05 04:55:09;;;;;;;1.75;1.60;;;11.60;13.30;;;;;;5125754;27;34259;-73
2022/07/05 04:57:39;;;;;;;1.90;1.60;;;11.70;13.30;;;;;;5132206;27;34103;-74
2022/07/05 05:00:07;;;;;;;1.67;1.50;;;11.70;13.60;;;;;;5124247;27;35253;-73
2022/07/05 05:02:33;;;;;;;2.38;1.67;;;11.80;13.40;;;;;;5108120;27;34233;-73
2022/07/05 05:05:00;;;;;;;1.60;1.50;;;11.80;13.30;;;;;;5158901;27;34288;-73
2022/07/05 05:07:27;;;;;;;3.13;1.77;;;11.90;13.50;;;;;;5145323;27;34301;-73
2022/07/05 05:09:53;;;;;;;2.75;1.60;;;12.00;13.50;;;;;;5147965;27;34990;-74
2022/07/05 05:12:19;;;;;;;3.83;1.85;;;12.10;13.60;;;;;;5085485;28;34103;-73
2022/07/05 05:14:45;;;;;;;6.40;2.00;;;12.20;13.70;;;;;;5098873;28;34275;-73
2022/07/05 05:17:10;;;;;;;2.42;1.70;;;12.30;13.70;;;;;;5102518;28;34168;-73
2022/07/05 05:19:36;;;;;;;2.17;1.70;;;12.30;13.70;;;;;;5113990;27;34911;-73
2022/07/05 05:22:03;;;;;;;2.38;1.92;;;12.50;13.70;;;;;;5105854;27;34302;-74
2022/07/05 05:24:28;;;;;;;1.98;1.75;;;12.80;13.60;;;;;;5106058;27;34164;-74
2022/07/05 05:26:55;;;;;;;2.42;1.88;;;13.30;13.20;;;;;;5105656;27;34106;-74
2022/07/05 05:29:21;;;;;;;2.10;2.00;;;14.10;12.20;;;;;;5124109;27;34456;-74
2022/07/05 05:31:47;;;;;;;1.60;1.50;;;15.20;10.90;;;;;;5105579;27;34069;-74
2022/07/05 05:34:14;;;;;;;4.75;1.63;;;16.40;9.50;;;;;;5140583;27;34130;-74
2022/07/05 05:36:39;;;;;;;2.38;1.58;;;17.40;7.90;;;;;;5139099;27;34441;-74
2022/07/05 05:39:05;;;;;;;1.50;1.40;;;18.50;6.40;;;;;;5084599;28;35876;-74
2022/07/05 05:41:31;;;;;;;3.85;1.52;;;19.30;5.20;;;;;;5105323;27;34215;-74
2022/07/05 05:43:57;;;;;;;1.45;1.30;;;20.10;4.20;;;;;;5121122;27;34104;-74
2022/07/05 05:46:23;;;;;;;2.25;1.45;;;20.90;3.40;;;;;;5084447;28;34582;-74
2022/07/05 05:48:49;;;;;;;1.35;1.27;;;21.60;2.60;;;;;;5118913;27;36057;-74
2022/07/05 05:51:15;;;;;;;1.88;1.50;;;22.10;1.90;;;;;;5094067;28;34410;-74
2022/07/05 05:53:41;;;;;;;3.72;1.30;;;22.60;1.30;;;;;;5102375;28;34309;-74
2022/07/05 05:56:07;;;;;;;2.83;1.58;;;23.00;1.00;;;;;;5088066;27;34478;-75
2022/07/05 05:58:33;;;;;;;3.72;1.55;;;23.60;1.00;;;;;;5139897;27;35334;-74
2022/07/05 06:00:59;;;;;;;1.65;1.20;;;24.00;1.00;;;;;;5139856;27;34537;-74
2022/07/05 06:03:27;;;;;;;4.28;1.45;;;24.00;1.00;;;;;;5109076;27;34337;-74
2022/07/05 06:05:53;;;;;;;2.08;1.23;;;23.70;1.00;;;;;;5086034;27;34154;-75
2022/07/05 06:08:19;;;;;;;1.83;1.70;;;23.20;1.00;;;;;;5104998;27;35508;-75
2022/07/05 06:10:45;;;;;;;2.25;1.65;;;23.10;1.00;;;;;;5105188;27;34297;-75
2022/07/05 06:13:13;;;;;;;2.35;1.67;;;23.10;1.00;;;;;;5122559;27;34156;-75
2022/07/05 06:15:40;;;;;;;3.92;1.58;;;23.50;1.00;;;;;;5123712;27;34302;-76
2022/07/05 06:18:08;;;;;;;3.15;1.33;;;24.00;1.00;;;;;;5124568;27;35817;-75
2022/07/05 06:20:35;;;;;;;4.47;2.05;;;24.40;1.00;;;;;;5125407;27;34132;-75
2022/07/05 06:23:03;;;;;;;5.30;1.83;;;24.70;1.00;;;;;;5108727;27;34539;-75
2022/07/05 06:25:30;;;;;;;4.55;1.80;;;24.80;1.00;;;;;;5108408;27;34310;-76
2022/07/05 06:28:04;;;;;;;1.98;1.77;;;24.90;1.00;;;;;;5106509;27;36302;-75
2022/07/05 06:30:32;;;;;;;5.53;1.92;;;25.20;1.00;;;;;;5105497;28;33995;-75
2022/07/05 06:32:59;;;;;;;6.60;2.20;;;25.50;1.00;;;;;;5113336;27;34358;-75
2022/07/05 06:35:25;;;;;;;3.03;2.00;;;25.80;1.00;;;;;;5080456;28;34304;-75
2022/07/05 06:37:55;;;;;;;3.47;2.13;;;26.10;1.00;;;;;;5087769;28;35618;-76
2022/07/05 06:40:25;;;;;;;1.98;1.73;;;26.30;1.00;;;;;;5115695;27;34413;-76
2022/07/05 06:42:52;;;;;;;3.03;1.73;;;26.50;1.00;;;;;;5104439;27;34190;-76
2022/07/05 06:45:18;;;;;;;2.70;2.10;;;26.50;1.00;;;;;;5117692;27;34060;-75
2022/07/05 06:47:44;;;;;;;4.80;2.38;;;26.60;1.00;;;;;;5130227;27;34174;-76
2022/07/05 06:50:10;;;;;;;3.30;2.28;;;26.90;1.00;;;;;;5146230;27;34113;-76
2022/07/05 06:52:37;;;;;;;5.97;2.40;;;27.20;1.00;;;;;;5125504;27;34189;-76
2022/07/05 06:55:03;;;;;;;2.40;2.20;;;27.20;1.00;;;;;;5126707;27;34328;-76
2022/07/05 06:57:29;;;;;;;4.03;2.13;;;27.40;1.00;;;;;;5124966;27;35462;-76
2022/07/05 06:59:56;;;;;;;7.55;2.30;;;27.80;1.00;;;;;;5106874;27;34227;-76
2022/07/05 07:02:22;;;;;;;2.80;2.30;;;28.10;1.00;;;;;;5126143;27;34079;-76
2022/07/05 07:04:49;;;;;;;2.13;1.83;;;28.50;1.00;;;;;;5107951;27;34074;-76
2022/07/05 07:10:02;;;;;;;3.00;2.45;;;28.20;1.00;;;;;;5110578;27;34439;-76
2022/07/05 07:12:29;;;;;;;2.90;2.30;;;28.20;1.00;;;;;;5090071;28;34360;-76
2022/07/05 07:14:56;;;;;;;2.85;2.60;;;28.30;1.00;;;;;;5087235;28;34394;-76
2022/07/05 07:17:23;;;;;;;3.00;2.55;;;28.20;1.00;;;;;;5105464;27;34201;-76
2022/07/05 07:19:49;;;;;;;5.32;2.95;;;28.20;1.00;;;;;;5090886;28;34281;-76
2022/07/05 07:22:15;;;;;;;6.45;2.60;;;28.50;1.00;;;;;;5105362;28;34161;-76
2022/07/05 07:24:41;;;;;;;4.97;2.70;;;28.80;1.00;;;;;;5104290;28;34341;-76
2022/07/05 07:27:07;;;;;;;8.43;2.60;;;28.80;1.00;;;;;;5105298;27;36367;-76
2022/07/05 07:29:36;;;;;;;5.85;2.50;;;29.00;1.00;;;;;;5123396;27;34334;-76
2022/07/05 07:32:03;;;;;;;2.53;2.33;;;29.20;1.00;;;;;;5087459;28;34476;-77
2022/07/05 07:34:29;;;;;;;2.55;2.10;;;29.40;1.00;;;;;;5139943;27;34289;-77
2022/07/05 07:36:56;;;;;;;4.43;2.30;;;29.70;1.00;;;;;;5130273;27;35008;-76
2022/07/05 07:39:24;;;;;;;3.47;2.13;;;29.90;1.00;;;;;;5146715;27;34202;-76
2022/07/05 07:41:50;;;;;;;1.98;1.70;;;30.10;1.00;;;;;;5162644;27;34158;-77
2022/07/05 07:44:16;;;;;;;2.90;1.98;;;30.20;1.00;;;;;;5130769;27;34360;-77
2022/07/05 07:46:42;;;;;;;3.00;1.95;;;30.20;1.00;;;;;;5094266;28;35002;-76
2022/07/05 07:49:09;;;;;;;3.13;1.90;;;30.20;1.00;;;;;;5114657;27;34206;-76
2022/07/05 07:51:35;;;;;;;1.90;1.70;;;30.20;1.00;;;;;;5119965;27;34043;-76
2022/07/05 07:54:01;;;;;;;3.88;1.83;;;30.00;1.00;;;;;;5104878;27;34008;-77
2022/07/05 07:56:27;;;;;;;2.42;1.88;;;29.70;1.00;;;;;;5119330;27;35056;-76
2022/07/05 07:58:53;;;;;;;3.80;1.90;;;29.60;1.00;;;;;;5096240;28;34117;-77
2022/07/05 08:01:19;;;;;;;1.95;1.50;;;29.50;1.00;;;;;;5083266;28;34299;-77
2022/07/05 08:03:45;;;;;;;3.13;1.60;;;29.60;1.00;;;;;;5121882;27;34271;-76
2022/07/05 08:06:13;;;;;;;2.55;1.65;;;29.80;1.00;;;;;;5124347;27;35590;-77
2022/07/05 08:08:40;;;;;;;2.30;1.90;;;30.10;1.00;;;;;;5141641;27;34145;-77
2022/07/05 08:11:08;;;;;;;3.15;1.70;;;30.40;1.00;;;;;;5119478;27;34433;-77
2022/07/05 08:13:35;;;;;;;2.72;1.80;;;30.50;1.00;;;;;;5104574;27;34385;-77
2022/07/05 08:16:01;;;;;;;4.53;1.73;;;30.30;1.00;;;;;;5107691;27;34268;-77
2022/07/05 08:23:50;;;;;;;2.33;1.50;;;29.80;1.00;;;;;;5117585;27;34097;-77
2022/07/05 08:26:16;;;;;;;4.32;1.75;;;29.60;1.00;;;;;;5087833;28;36502;-77
2022/07/05 08:28:42;;;;;;;1.75;1.58;;;29.70;1.00;;;;;;5120931;27;34044;-77
2022/07/05 08:31:08;;;;;;;3.97;1.40;;;29.60;1.00;;;;;;5086407;28;34232;-77
2022/07/05 08:33:33;;;;;;;1.85;1.30;;;29.70;1.00;;;;;;5105773;27;34342;-78
2022/07/05 08:35:59;;;;;;;2.33;1.50;;;30.00;1.00;;;;;;5088141;27;35470;-77
2022/07/05 08:38:25;;;;;;;1.42;1.33;;;30.40;1.00;;;;;;5124491;27;34170;-77
2022/07/05 08:40:54;;;;;;;3.60;1.17;;;30.60;1.00;;;;;;5106790;27;34073;-76
2022/07/05 08:43:22;;;;;;;2.03;1.20;;;30.80;1.00;;;;;;5124333;27;34385;-77
2022/07/05 08:45:49;;;;;;;1.50;1.10;;;30.90;1.00;;;;;;5106537;27;36322;-77
2022/07/05 08:48:16;;;;;;;2.75;1.40;;;30.80;1.00;;;;;;5125104;27;34070;-78
2022/07/05 08:50:46;;;;;;;1.95;1.17;;;30.70;1.00;;;;;;5106822;27;34416;-76
2022/07/05 08:53:14;;;;;;;2.33;1.23;;;30.90;1.00;;;;;;5106954;27;34641;-77
2022/07/05 08:55:41;;;;;;;2.83;1.35;;;31.00;1.00;;;;;;5106732;27;36790;-77
2022/07/05 08:58:07;;;;;;;1.30;1.20;;;31.00;1.00;;;;;;5106688;27;34183;-76
2022/07/05 09:00:33;;;;;;;2.08;1.23;;;30.60;1.00;;;;;;5116244;27;34239;-78
2022/07/05 09:02:59;;;;;;;1.83;1.05;;;30.60;1.00;;;;;;5139825;27;34500;-78
2022/07/05 09:05:26;;;;;;;1.80;1.00;;;30.50;1.00;;;;;;5096432;28;36583;-77
2022/07/05 09:07:59;;;;;;;11.65;1.90;;;30.60;1.00;;;;;;5103837;28;34132;-78
2022/07/05 09:10:30;;;;;;;1.67;1.40;;;30.70;1.00;;;;;;5093108;28;34147;-76
2022/07/05 09:12:57;;;;;;;2.15;1.20;;;30.70;1.00;;;;;;5067727;28;34051;-78
2022/07/05 09:15:24;;;;;;;1.55;1.35;;;30.70;1.00;;;;;;5120806;27;36659;-78
2022/07/05 09:17:49;;;;;;;3.10;1.63;;;30.80;1.00;;;;;;5103079;27;34125;-75
2022/07/05 09:20:18;;;;;;;2.03;1.58;;;30.90;1.00;;;;;;5073520;27;34088;-76
2022/07/05 09:22:47;;;;;;;4.13;1.38;;;30.70;1.00;;;;;;5083836;27;34631;-77
2022/07/05 09:25:17;;;;;;;1.00;1.00;;;30.80;1.00;;;;;;5123233;27;36263;-77
2022/07/05 09:28:01;;;;;;;1.20;1.10;;;30.90;1.00;;;;;;5106801;27;34191;-80
2022/07/05 09:30:34;;;;;;;1.35;1.20;;;31.20;1.00;;;;;;5110647;27;34332;-77
2022/07/05 09:33:06;;;;;;;3.53;1.30;;;31.00;1.00;;;;;;5127602;27;34114;-80
2022/07/05 09:35:34;;;;;;;2.08;1.20;;;30.50;1.00;;;;;;5136955;27;35258;-77
2022/07/05 09:38:03;;;;;;;2.33;1.30;;;30.00;1.00;;;;;;5145036;27;34604;-76
2022/07/05 09:40:31;;;;;;;4.75;1.30;;;29.70;1.00;;;;;;5131774;27;34161;-77
2022/07/05 09:43:14;;;;;;;1.90;1.10;;;29.60;1.00;;;;;;5115540;27;34712;-77
2022/07/05 09:45:40;;;;;;;1.30;1.23;;;29.90;1.00;;;;;;5107136;27;35754;-76
2022/07/05 09:48:08;;;;;;;2.03;0.88;;;30.10;1.00;;;;;;5145283;27;34078;-77
2022/07/05 09:50:35;;;;;;;0.93;0.88;;;30.20;1.00;;;;;;5162650;27;34195;-77
2022/07/05 09:53:01;;;;;;;1.10;1.00;;;30.30;1.00;;;;;;5101839;27;34156;-80
2022/07/05 09:55:28;;;;;;;2.03;0.98;;;30.20;1.00;;;;;;5130055;27;35913;-77
2022/07/05 09:57:54;;;;;;;0.90;0.80;;;30.20;1.00;;;;;;5114360;27;34354;-76
2022/07/05 10:00:22;;;;;;;1.38;1.02;;;30.30;1.00;;;;;;5092484;27;34290;-77
2022/07/05 10:02:51;;;;;;;0.70;0.70;;;30.50;1.00;;;;;;5110124;27;34287;-77
2022/07/05 10:05:20;;;;;;;2.67;1.15;;;30.70;1.00;;;;;;5109762;27;34324;-76
2022/07/05 10:07:51;;;;;;;4.13;0.60;;;30.70;1.00;;;;;;5143767;27;34387;-76
2022/07/05 10:10:19;;;;;;;1.33;0.80;;;30.80;1.00;;;;;;5126800;27;34159;-77
2022/07/05 10:12:48;;;;;;;2.15;0.80;;;30.50;1.00;;;;;;5143625;27;34296;-76
2022/07/05 10:15:18;;;;;;;0.90;0.90;;;30.10;1.00;;;;;;5137316;27;36744;-77
2022/07/05 10:17:50;;;;;;;2.53;0.93;;;29.90;1.00;;;;;;5125637;27;34160;-79
2022/07/05 10:20:24;;;;;;;1.20;0.85;;;29.90;1.00;;;;;;5124257;27;34110;-77
2022/07/05 10:22:51;;;;;;;0.85;0.80;;;30.00;1.00;;;;;;5106540;27;34288;-77
2022/07/05 10:25:17;;;;;;;1.30;0.70;;;30.00;1.00;;;;;;5147053;27;36329;-77
2022/07/05 10:27:43;;;;;;;1.25;0.80;;;30.20;1.00;;;;;;5128152;27;34408;-77
2022/07/05 10:30:12;;;;;;;1.00;0.82;;;30.20;1.00;;;;;;5106437;27;34080;-77
2022/07/05 10:32:40;;;;;;;1.17;1.00;;;30.40;1.00;;;;;;5102174;28;34317;-78
2022/07/05 10:35:06;;;;;;;1.65;0.85;;;30.50;1.00;;;;;;5125742;27;34125;-76
2022/07/05 10:37:34;;;;;;;0.73;0.73;;;30.20;1.00;;;;;;5109510;27;34096;-77
2022/07/05 10:40:02;;;;;;;1.77;0.70;;;29.90;1.00;;;;;;5124635;27;34457;-76
2022/07/05 10:42:33;;;;;;;1.58;0.90;;;30.00;1.00;;;;;;5082612;28;34409;-76
2022/07/05 10:45:00;;;;;;;2.70;0.80;;;30.20;1.00;;;;;;5088458;28;35492;-77
2022/07/05 10:47:27;;;;;;;1.35;0.88;;;30.40;1.00;;;;;;5121119;27;34120;-78
2022/07/05 10:50:03;;;;;;;2.35;0.98;;;30.50;1.00;;;;;;5110636;27;34192;-77
2022/07/05 10:52:29;;;;;;;1.65;0.70;;;30.60;1.00;;;;;;5139773;27;34182;-77
2022/07/05 10:55:18;;;;;;;2.28;1.02;;;30.70;1.00;;;;;;5104864;28;35568;-77
2022/07/05 10:57:43;;;;;;;1.00;0.63;;;30.90;1.00;;;;;;5105880;28;34309;-76
2022/07/05 11:00:12;;;;;;;1.13;0.82;;;31.00;1.00;;;;;;5105972;28;34378;-75
2022/07/05 11:02:38;;;;;;;2.20;0.80;;;31.10;1.00;;;;;;5105822;28;34154;-76
2022/07/05 11:05:04;;;;;;;0.90;0.80;;;31.10;1.00;;;;;;5105010;28;35634;-77
2022/07/05 11:08:02;;;;;;;3.85;1.15;;;30.90;1.00;;;;;;5101409;27;34088;-76
2022/07/05 11:10:31;;;;;;;0.82;0.82;;;30.40;1.00;;;;;;5084582;28;34139;-77
2022/07/05 11:12:57;;;;;;;0.75;0.70;;;30.40;1.00;;;;;;5102151;27;34346;-77
2022/07/05 11:15:23;;;;;;;2.35;0.90;;;30.50;1.00;;;;;;5085319;28;34416;-81
2022/07/05 11:17:49;;;;;;;2.05;0.80;;;30.70;1.00;;;;;;5094952;28;34272;-76
2022/07/05 11:20:21;;;;;;;1.15;0.80;;;30.90;1.00;;;;;;5104673;28;34011;-77
2022/07/05 11:23:06;;;;;;;0.80;0.80;;;31.10;1.00;;;;;;5106438;27;34258;-77
2022/07/05 11:25:35;;;;;;;0.77;0.63;;;31.50;1.00;;;;;;5104739;28;35616;-78
2022/07/05 11:28:07;;;;;;;1.52;0.70;;;31.40;1.00;;;;;;5087732;28;34508;-79
2022/07/05 11:30:50;;;;;;;0.80;0.80;;;31.20;1.00;;;;;;5105803;27;34134;-78
2022/07/05 11:33:32;;;;;;;2.33;1.10;;;31.30;1.00;;;;;;5105410;28;34413;-76
2022/07/05 11:35:59;;;;;;;2.35;0.70;;;31.20;1.00;;;;;;5098091;28;35094;-77
2022/07/05 11:38:24;;;;;;;0.80;0.70;;;31.20;1.00;;;;;;5084478;28;34393;-77
2022/07/05 11:40:51;;;;;;;1.15;1.05;;;31.30;1.00;;;;;;5084473;28;34361;-80
2022/07/05 11:43:29;;;;;;;1.75;0.80;;;31.30;1.00;;;;;;5118518;27;34478;-76
2022/07/05 11:45:59;;;;;;;2.67;0.80;;;31.40;1.00;;;;;;5084536;28;36144;-79
2022/07/05 11:48:28;;;;;;;1.83;0.80;;;31.50;1.00;;;;;;5067921;28;34191;-77
2022/07/05 11:50:54;;;;;;;0.73;0.70;;;31.70;1.00;;;;;;5082889;27;34283;-77
2022/07/05 11:53:29;;;;;;;3.22;0.77;;;31.40;1.00;;;;;;5106870;27;34027;-77
2022/07/05 11:56:14;;;;;;;0.90;0.70;;;31.20;1.00;;;;;;5090950;27;36333;-77
2022/07/05 11:58:40;;;;;;;1.13;0.82;;;31.30;1.00;;;;;;5127866;27;34379;-77
2022/07/05 12:01:06;;;;;;;0.60;0.60;;;31.40;1.00;;;;;;5126100;27;34250;-77
2022/07/05 12:03:31;;;;;;;0.80;0.80;;;31.60;1.00;;;;;;5108279;27;34329;-78
2022/07/05 12:05:57;;;;;;;1.85;0.77;;;31.70;1.00;;;;;;5142666;27;35981;-76
2022/07/05 12:08:24;;;;;;;0.73;0.73;;;31.50;1.00;;;;;;5126552;27;34142;-79
2022/07/05 12:13:45;;;;;;;1.15;0.82;;;30.90;1.00;;;;;;5107729;27;34284;-79
2022/07/05 12:16:13;;;;;;;3.75;0.70;;;30.50;1.00;;;;;;5142036;27;35817;-79
2022/07/05 12:18:47;;;;;;;0.80;0.80;;;30.30;1.00;;;;;;5125453;27;34340;-79
2022/07/05 12:21:14;;;;;;;0.95;0.85;;;30.30;1.00;;;;;;5108014;27;34103;-77
2022/07/05 12:23:43;;;;;;;1.35;0.93;;;30.30;1.00;;;;;;5142097;27;34377;-76
2022/07/05 12:26:17;;;;;;;0.70;0.70;;;30.40;1.00;;;;;;5124340;27;35923;-77
2022/07/05 12:28:44;;;;;;;0.80;0.77;;;30.50;1.00;;;;;;5141470;27;34200;-77
2022/07/05 12:31:25;;;;;;;1.70;0.80;;;30.90;1.00;;;;;;5141360;27;34188;-76
2022/07/05 12:33:52;;;;;;;0.88;0.70;;;31.20;1.00;;;;;;5122006;27;35768;-80
2022/07/05 12:36:23;;;;;;;1.25;0.70;;;31.20;1.00;;;;;;5122743;27;35059;-80
2022/07/05 12:38:49;;;;;;;0.90;0.60;;;31.20;1.00;;;;;;5124477;27;34096;-77
2022/07/05 12:41:22;;;;;;;2.70;0.80;;;30.90;1.00;;;;;;5128741;27;34258;-77
2022/07/05 12:43:50;;;;;;;1.80;0.68;;;30.60;1.00;;;;;;5120919;27;34411;-78
2022/07/05 12:46:16;;;;;;;0.85;0.75;;;30.50;1.00;;;;;;5100022;27;35906;-80
2022/07/05 12:48:43;;;;;;;0.75;0.75;;;30.50;1.00;;;;;;5124260;27;34268;-77
2022/07/05 12:51:10;;;;;;;0.80;0.63;;;30.70;1.00;;;;;;5106800;27;34135;-77
2022/07/05 12:59:33;;;;;;;0.93;0.70;;;30.90;1.00;;;;;;5117664;27;34084;-77
2022/07/05 13:01:59;;;;;;;1.13;0.60;;;30.60;1.00;;;;;;5123830;27;34622;-76
2022/07/05 13:04:25;;;;;;;1.20;0.80;;;30.30;1.00;;;;;;5141191;27;34500;-78
2022/07/05 13:07:00;;;;;;;0.85;0.85;;;30.20;1.00;;;;;;5124842;27;34166;-76
2022/07/05 13:09:34;;;;;;;1.45;0.80;;;29.90;1.00;;;;;;5123825;27;34094;-77
2022/07/05 13:12:11;;;;;;;0.52;0.52;;;29.80;1.00;;;;;;5123282;27;34191;-75